Yreka, CA (96097)

5:08 PM PST on February 24, 2017 (GMT -0800)
Sierra Vista | | Change Station
Active Advisory: Special Statement

Elev 2743 ft 41.73 °N, 122.62 °W | Updated 1 second ago

Overcast
Overcast
38.7 °F
Feels Like 39 °F
N
1.3
Wind Variable Wind from West
Gusts 2.5 mph

Today
High -- | Low -- °F
--% Chance of Precip.
Yesterday
High -- | Low -- °F
Precip. -- in
Pressure 30.17 in
Visibility 10.0 miles
Clouds Overcast 7000 ft
Windchill 39 °F
Dew Point 23 °F
Humidity 53%
Rainfall 0.00 in
Snow Depth Not available.
6:52 AM 5:55 PM
Waning Crescent, 3% visible
METAR KSIY 250053Z AUTO 00000KT 10SM OVC070 03/M07 A3007 RMK AO2 SLP214 T00331072
Pressure 30.17 in
Visibility 10.0 miles
Clouds Overcast 7000 ft
Windchill 39 °F
Dew Point 23 °F
Humidity 53%
Rainfall 0.00 in
Snow Depth Not available.
6:52 AM 5:55 PM
Waning Crescent, 3% visible
METAR KSIY 250053Z AUTO 00000KT 10SM OVC070 03/M07 A3007 RMK AO2 SLP214 T00331072

Get Your Daily Forecast Email!

Thanks for signing up!

Be on the lookout for a verification email in your inbox.

You'll start receiving the daily forecast at 8 AM.

×

10-Day Weather Forecast

Almanac

Astronomy

Feb. 24, 2017 Rise Set
Actual Time
Civil Twilight
Nautical Twilight
Astronomical Twilight
Moon
Length of Visible Light
Length of Day
Tomorrow will be .
, % of the Moon is Illuminated

Today's Extremes

State Highs State Lows

Community

WunderPhotos

Upload Photos

1,962,540 photos uploaded!

WunderBlog® & News

Nearby

Air Quality

  Air Quality AQ Index Pollutant
Not available.

Snow Depth

Station Depth Elevation

Earthquake Activity

City Distance Mag. Time & Date
Minimum magnitude displayed is 2.5.

Coastal Water Temperatures

Place Temperature

Stations

Nearby Weather Stations

Station Location Temp. Windchill Dew Point Humidity Wind Precip. Elev Updated Type
                   

Watches & Warnings

Special Statement
Issued: 2:48 PM PST Feb. 24, 2017 – National Weather Service

... Potential for moderate to heavy snow for areas west of the
Cascades into the mountains and northern California Sunday
afternoon and night...

A strong storm is expected to produce moderate to heavy snow for
portions of the west side, the mountains, and in northern
California Sunday through Sunday night. Confidence has increased
that snow will occur, but uncertainty remains as to how much snow
will fall and how low snow levels will be.

The most likely locations for travel impacts will be Interstate 5
at Siskiyou Summit and the Lower Mountain passes between Grants
Pass and Canyonville, Highway 199 in the Illinois Valley, The
Mount Shasta area, Highway 89 east of Mount Shasta city and the
Cascades passes in Oregon.

The Rogue Valley may also be impacted by light snowfall late
Sunday.

Those planning to travel through southwest Oregon and northern
California Sunday through Sunday night should monitor forecasts
and plan accordingly.